Buellton, California
Current Conditions -  °F | °C
As of 11:35 AM on Wednesday 17 Dec 2014 (Local Time) from KIZA Reporting Station
Clear Clear  
Wind Chill: 59°   Ceiling: Unl
Heat Index: 59°   Visibility: 10mi
Dew Point: 43°   Wind: 9mph
Humidity: 55%   Direction: 320°NW
Pressure: 30.1"   Gusts: 16mph
Location:  34.61°N, 120.19°W
Report Text: KIZA 171935Z AUTO 32008G14KT 10SM CLR 15/06 A3010 RMK AO2
Loading
Personal Weather Stations






























Interactive Weather Map New forecast layout! Learn more

10-Day Weather Forecast

Advertisements
Track Severe Weather on mobile